sensor_id;sensor_type;location;lat;lon;timestamp;pressure;altitude;pressure_sealevel;temperature;humidity
32933;BME280;19444;50.518;10.870;2022-12-18T00:01:01;97801.50;;;-11.92;100.00
32933;BME280;19444;50.518;10.870;2022-12-18T00:04:05;97801.75;;;-12.05;100.00
32933;BME280;19444;50.518;10.870;2022-12-18T00:07:02;97808.00;;;-12.08;100.00
32933;BME280;19444;50.518;10.870;2022-12-18T00:09:59;97800.13;;;-12.06;100.00
32933;BME280;19444;50.518;10.870;2022-12-18T00:12:56;97801.09;;;-11.97;100.00
32933;BME280;19444;50.518;10.870;2022-12-18T00:15:53;97802.72;;;-12.06;100.00
32933;BME280;19444;50.518;10.870;2022-12-18T00:18:55;97794.69;;;-12.03;100.00
32933;BME280;19444;50.518;10.870;2022-12-18T00:21:52;97783.91;;;-12.08;100.00
32933;BME280;19444;50.518;10.870;2022-12-18T00:24:49;97805.97;;;-12.14;100.00
32933;BME280;19444;50.518;10.870;2022-12-18T00:27:47;97812.06;;;-12.24;100.00
32933;BME280;19444;50.518;10.870;2022-12-18T00:30:44;97813.56;;;-12.12;100.00
32933;BME280;19444;50.518;10.870;2022-12-18T00:33:41;97807.31;;;-12.10;100.00
32933;BME280;19444;50.518;10.870;2022-12-18T00:36:38;97810.56;;;-12.08;100.00
32933;BME280;19444;50.518;10.870;2022-12-18T00:39:36;97804.59;;;-12.08;100.00
32933;BME280;19444;50.518;10.870;2022-12-18T00:42:33;97807.88;;;-11.96;100.00
32933;BME280;19444;50.518;10.870;2022-12-18T00:45:56;97822.28;;;-12.13;100.00
32933;BME280;19444;50.518;10.870;2022-12-18T00:48:53;97827.81;;;-12.18;100.00
32933;BME280;19444;50.518;10.870;2022-12-18T00:51:49;97819.69;;;-12.13;100.00
32933;BME280;19444;50.518;10.870;2022-12-18T00:54:46;97839.13;;;-12.19;100.00
32933;BME280;19444;50.518;10.870;2022-12-18T00:57:43;97833.25;;;-12.21;100.00
32933;BME280;19444;50.518;10.870;2022-12-18T01:00:40;97829.88;;;-12.21;100.00
32933;BME280;19444;50.518;10.870;2022-12-18T01:03:37;97827.28;;;-12.21;100.00
32933;BME280;19444;50.518;10.870;2022-12-18T01:06:36;97825.00;;;-12.15;100.00
32933;BME280;19444;50.518;10.870;2022-12-18T01:09:33;97832.31;;;-12.20;100.00
32933;BME280;19444;50.518;10.870;2022-12-18T01:12:32;97833.25;;;-12.21;100.00
32933;BME280;19444;50.518;10.870;2022-12-18T01:15:29;97835.72;;;-12.10;100.00
32933;BME280;19444;50.518;10.870;2022-12-18T01:18:25;97841.19;;;-12.13;100.00
32933;BME280;19444;50.518;10.870;2022-12-18T01:21:23;97845.38;;;-12.12;100.00
32933;BME280;19444;50.518;10.870;2022-12-18T01:24:20;97842.94;;;-12.13;100.00
32933;BME280;19444;50.518;10.870;2022-12-18T01:27:17;97845.25;;;-12.10;100.00
32933;BME280;19444;50.518;10.870;2022-12-18T01:30:14;97843.31;;;-12.18;100.00
32933;BME280;19444;50.518;10.870;2022-12-18T01:33:11;97851.78;;;-12.16;100.00
32933;BME280;19444;50.518;10.870;2022-12-18T01:36:18;97843.44;;;-12.29;100.00
32933;BME280;19444;50.518;10.870;2022-12-18T01:39:15;97847.81;;;-12.20;100.00
32933;BME280;19444;50.518;10.870;2022-12-18T01:42:15;97852.31;;;-12.12;100.00
32933;BME280;19444;50.518;10.870;2022-12-18T01:48:09;97849.44;;;-12.19;100.00
32933;BME280;19444;50.518;10.870;2022-12-18T01:51:08;97851.72;;;-12.25;100.00
32933;BME280;19444;50.518;10.870;2022-12-18T01:54:06;97856.63;;;-12.32;100.00
32933;BME280;19444;50.518;10.870;2022-12-18T01:57:03;97844.75;;;-12.35;100.00
32933;BME280;19444;50.518;10.870;2022-12-18T02:00:05;97852.13;;;-12.30;100.00
32933;BME280;19444;50.518;10.870;2022-12-18T02:03:05;97856.06;;;-12.36;100.00
32933;BME280;19444;50.518;10.870;2022-12-18T02:09:30;97850.34;;;-12.39;100.00
32933;BME280;19444;50.518;10.870;2022-12-18T02:12:54;97852.50;;;-12.35;100.00
32933;BME280;19444;50.518;10.870;2022-12-18T02:19:16;97852.66;;;-12.36;100.00
32933;BME280;19444;50.518;10.870;2022-12-18T02:22:34;97850.50;;;-12.31;100.00
32933;BME280;19444;50.518;10.870;2022-12-18T02:29:16;97861.78;;;-12.32;100.00
32933;BME280;19444;50.518;10.870;2022-12-18T02:32:22;97858.63;;;-12.36;100.00
32933;BME280;19444;50.518;10.870;2022-12-18T02:35:24;97857.66;;;-12.44;100.00
32933;BME280;19444;50.518;10.870;2022-12-18T02:38:23;97849.66;;;-12.41;100.00
32933;BME280;19444;50.518;10.870;2022-12-18T02:41:23;97845.34;;;-12.31;100.00
32933;BME280;19444;50.518;10.870;2022-12-18T02:44:21;97849.66;;;-12.41;100.00
32933;BME280;19444;50.518;10.870;2022-12-18T02:47:22;97848.28;;;-12.45;100.00
32933;BME280;19444;50.518;10.870;2022-12-18T02:50:38;97851.16;;;-12.39;100.00
32933;BME280;19444;50.518;10.870;2022-12-18T02:57:40;97841.16;;;-12.53;100.00
32933;BME280;19444;50.518;10.870;2022-12-18T03:03:56;97851.63;;;-12.54;100.00
32933;BME280;19444;50.518;10.870;2022-12-18T03:06:59;97838.59;;;-12.53;100.00
32933;BME280;19444;50.518;10.870;2022-12-18T03:09:59;97833.72;;;-12.46;100.00
32933;BME280;19444;50.518;10.870;2022-12-18T03:13:09;97835.09;;;-12.52;100.00
32933;BME280;19444;50.518;10.870;2022-12-18T03:16:12;97835.72;;;-12.59;100.00
32933;BME280;19444;50.518;10.870;2022-12-18T03:19:16;97841.47;;;-12.46;100.00
32933;BME280;19444;50.518;10.870;2022-12-18T03:22:17;97847.00;;;-12.60;100.00
32933;BME280;19444;50.518;10.870;2022-12-18T03:25:15;97849.94;;;-12.35;100.00
32933;BME280;19444;50.518;10.870;2022-12-18T03:28:17;97851.25;;;-12.50;100.00
32933;BME280;19444;50.518;10.870;2022-12-18T03:31:16;97855.84;;;-12.53;100.00
32933;BME280;19444;50.518;10.870;2022-12-18T03:34:21;97843.25;;;-12.47;100.00
32933;BME280;19444;50.518;10.870;2022-12-18T03:37:19;97846.81;;;-12.38;100.00
32933;BME280;19444;50.518;10.870;2022-12-18T03:40:16;97831.41;;;-12.49;100.00
32933;BME280;19444;50.518;10.870;2022-12-18T03:43:36;97837.25;;;-12.47;100.00
32933;BME280;19444;50.518;10.870;2022-12-18T03:49:59;97852.41;;;-12.33;100.00
32933;BME280;19444;50.518;10.870;2022-12-18T03:56:21;97853.03;;;-12.50;100.00
32933;BME280;19444;50.518;10.870;2022-12-18T03:59:20;97849.81;;;-12.64;100.00
32933;BME280;19444;50.518;10.870;2022-12-18T04:02:18;97854.03;;;-12.63;100.00
32933;BME280;19444;50.518;10.870;2022-12-18T04:05:18;97853.41;;;-12.55;100.00
32933;BME280;19444;50.518;10.870;2022-12-18T04:08:16;97853.53;;;-12.56;100.00
32933;BME280;19444;50.518;10.870;2022-12-18T04:11:13;97853.53;;;-12.56;100.00
32933;BME280;19444;50.518;10.870;2022-12-18T04:14:11;97855.59;;;-12.50;100.00
32933;BME280;19444;50.518;10.870;2022-12-18T04:17:14;97849.50;;;-12.49;100.00
32933;BME280;19444;50.518;10.870;2022-12-18T04:20:10;97851.81;;;-12.46;100.00
32933;BME280;19444;50.518;10.870;2022-12-18T04:23:07;97844.22;;;-12.38;100.00
32933;BME280;19444;50.518;10.870;2022-12-18T04:26:04;97853.69;;;-12.48;100.00
32933;BME280;19444;50.518;10.870;2022-12-18T04:29:01;97854.84;;;-12.62;100.00
32933;BME280;19444;50.518;10.870;2022-12-18T04:31:59;97857.97;;;-12.68;100.00
32933;BME280;19444;50.518;10.870;2022-12-18T04:34:56;97850.28;;;-12.58;100.00
32933;BME280;19444;50.518;10.870;2022-12-18T04:37:53;97855.81;;;-12.63;100.00
32933;BME280;19444;50.518;10.870;2022-12-18T04:40:50;97861.63;;;-12.40;100.00
32933;BME280;19444;50.518;10.870;2022-12-18T04:43:47;97853.81;;;-12.59;100.00
32933;BME280;19444;50.518;10.870;2022-12-18T04:46:44;97850.47;;;-12.71;100.00
32933;BME280;19444;50.518;10.870;2022-12-18T04:49:41;97856.72;;;-12.74;100.00
32933;BME280;19444;50.518;10.870;2022-12-18T04:52:38;97859.66;;;-12.57;100.00
32933;BME280;19444;50.518;10.870;2022-12-18T04:55:35;97871.34;;;-12.53;100.00
32933;BME280;19444;50.518;10.870;2022-12-18T04:58:32;97862.13;;;-12.46;100.00
32933;BME280;19444;50.518;10.870;2022-12-18T05:01:29;97864.75;;;-12.67;100.00
32933;BME280;19444;50.518;10.870;2022-12-18T05:04:30;97866.03;;;-12.61;100.00
32933;BME280;19444;50.518;10.870;2022-12-18T05:07:27;97867.13;;;-12.54;100.00
32933;BME280;19444;50.518;10.870;2022-12-18T05:10:24;97866.13;;;-12.63;100.00
32933;BME280;19444;50.518;10.870;2022-12-18T05:13:21;97875.78;;;-12.65;100.00
32933;BME280;19444;50.518;10.870;2022-12-18T05:16:18;97883.66;;;-12.67;100.00
32933;BME280;19444;50.518;10.870;2022-12-18T05:19:14;97879.91;;;-12.53;100.00
32933;BME280;19444;50.518;10.870;2022-12-18T05:22:11;97873.97;;;-12.44;100.00
32933;BME280;19444;50.518;10.870;2022-12-18T05:25:08;97868.41;;;-12.39;100.00
32933;BME280;19444;50.518;10.870;2022-12-18T05:28:05;97871.00;;;-12.70;100.00
32933;BME280;19444;50.518;10.870;2022-12-18T05:31:04;97872.00;;;-12.61;100.00
32933;BME280;19444;50.518;10.870;2022-12-18T05:34:01;97872.09;;;-12.63;100.00
32933;BME280;19444;50.518;10.870;2022-12-18T05:36:58;97860.59;;;-12.58;100.00
32933;BME280;19444;50.518;10.870;2022-12-18T05:39:55;97869.47;;;-12.51;100.00
32933;BME280;19444;50.518;10.870;2022-12-18T05:42:51;97869.97;;;-12.57;100.00
32933;BME280;19444;50.518;10.870;2022-12-18T05:45:49;97880.56;;;-12.60;100.00
32933;BME280;19444;50.518;10.870;2022-12-18T05:48:47;97880.94;;;-12.65;100.00
32933;BME280;19444;50.518;10.870;2022-12-18T05:51:44;97878.53;;;-12.57;100.00
32933;BME280;19444;50.518;10.870;2022-12-18T05:54:42;97877.63;;;-12.46;100.00
32933;BME280;19444;50.518;10.870;2022-12-18T05:57:39;97883.00;;;-12.59;100.00
32933;BME280;19444;50.518;10.870;2022-12-18T06:00:41;97883.16;;;-12.60;100.00
32933;BME280;19444;50.518;10.870;2022-12-18T06:03:39;97884.66;;;-12.58;100.00
32933;BME280;19444;50.518;10.870;2022-12-18T06:06:37;97890.13;;;-12.51;100.00
32933;BME280;19444;50.518;10.870;2022-12-18T06:09:34;97880.34;;;-12.48;100.00
32933;BME280;19444;50.518;10.870;2022-12-18T06:12:31;97884.25;;;-12.53;100.00
32933;BME280;19444;50.518;10.870;2022-12-18T06:15:30;97900.19;;;-12.48;100.00
32933;BME280;19444;50.518;10.870;2022-12-18T06:18:27;97894.75;;;-12.45;100.00
32933;BME280;19444;50.518;10.870;2022-12-18T06:21:23;97901.44;;;-12.43;100.00
32933;BME280;19444;50.518;10.870;2022-12-18T06:24:20;97901.19;;;-12.40;100.00
32933;BME280;19444;50.518;10.870;2022-12-18T06:27:17;97897.19;;;-12.44;100.00
32933;BME280;19444;50.518;10.870;2022-12-18T06:30:15;97899.94;;;-12.36;100.00
32933;BME280;19444;50.518;10.870;2022-12-18T06:33:12;97904.72;;;-12.41;100.00
32933;BME280;19444;50.518;10.870;2022-12-18T06:36:12;97906.56;;;-12.52;100.00
32933;BME280;19444;50.518;10.870;2022-12-18T06:39:09;97903.72;;;-12.49;100.00
32933;BME280;19444;50.518;10.870;2022-12-18T06:42:06;97897.72;;;-12.50;100.00
32933;BME280;19444;50.518;10.870;2022-12-18T06:45:03;97900.28;;;-12.59;100.00
32933;BME280;19444;50.518;10.870;2022-12-18T06:48:01;97901.78;;;-12.57;100.00
32933;BME280;19444;50.518;10.870;2022-12-18T06:50:58;97890.50;;;-12.56;100.00
32933;BME280;19444;50.518;10.870;2022-12-18T06:53:55;97886.00;;;-12.54;100.00
32933;BME280;19444;50.518;10.870;2022-12-18T06:56:52;97893.47;;;-12.60;100.00
32933;BME280;19444;50.518;10.870;2022-12-18T06:59:49;97891.75;;;-12.50;100.00
32933;BME280;19444;50.518;10.870;2022-12-18T07:02:46;97891.25;;;-12.65;100.00
32933;BME280;19444;50.518;10.870;2022-12-18T07:05:43;97894.97;;;-12.58;100.00
32933;BME280;19444;50.518;10.870;2022-12-18T07:08:39;97890.81;;;-12.49;100.00
32933;BME280;19444;50.518;10.870;2022-12-18T07:11:36;97886.19;;;-12.46;100.00
32933;BME280;19444;50.518;10.870;2022-12-18T07:14:33;97891.75;;;-12.50;100.00
32933;BME280;19444;50.518;10.870;2022-12-18T07:17:30;97896.34;;;-12.54;100.00
32933;BME280;19444;50.518;10.870;2022-12-18T07:20:27;97904.94;;;-12.44;100.00
32933;BME280;19444;50.518;10.870;2022-12-18T07:23:24;97906.44;;;-12.51;100.00
32933;BME280;19444;50.518;10.870;2022-12-18T07:26:22;97907.88;;;-12.58;100.00
32933;BME280;19444;50.518;10.870;2022-12-18T07:29:19;97908.56;;;-12.56;100.00
32933;BME280;19444;50.518;10.870;2022-12-18T07:32:16;97916.72;;;-12.60;100.00
32933;BME280;19444;50.518;10.870;2022-12-18T07:35:13;97917.41;;;-12.58;100.00
32933;BME280;19444;50.518;10.870;2022-12-18T07:38:10;97920.16;;;-12.50;100.00
32933;BME280;19444;50.518;10.870;2022-12-18T07:41:12;97930.66;;;-12.42;100.00
32933;BME280;19444;50.518;10.870;2022-12-18T07:44:10;97935.28;;;-12.36;100.00
32933;BME280;19444;50.518;10.870;2022-12-18T07:47:07;97944.00;;;-12.37;100.00
32933;BME280;19444;50.518;10.870;2022-12-18T07:50:08;97939.03;;;-12.50;100.00
32933;BME280;19444;50.518;10.870;2022-12-18T07:53:05;97948.03;;;-12.44;100.00
32933;BME280;19444;50.518;10.870;2022-12-18T07:56:08;97949.44;;;-12.40;100.00
32933;BME280;19444;50.518;10.870;2022-12-18T07:59:25;97963.56;;;-12.35;100.00
32933;BME280;19444;50.518;10.870;2022-12-18T08:02:22;97973.09;;;-12.35;100.00
32933;BME280;19444;50.518;10.870;2022-12-18T08:05:19;97965.25;;;-12.33;100.00
32933;BME280;19444;50.518;10.870;2022-12-18T08:08:17;97982.09;;;-12.29;100.00
32933;BME280;19444;50.518;10.870;2022-12-18T08:11:14;97982.38;;;-12.32;100.00
32933;BME280;19444;50.518;10.870;2022-12-18T08:14:11;97985.94;;;-12.24;100.00
32933;BME280;19444;50.518;10.870;2022-12-18T08:17:08;97977.53;;;-12.16;100.00
32933;BME280;19444;50.518;10.870;2022-12-18T08:20:06;97983.81;;;-12.09;100.00
32933;BME280;19444;50.518;10.870;2022-12-18T08:23:03;97971.81;;;-12.20;100.00
32933;BME280;19444;50.518;10.870;2022-12-18T08:26:00;97973.59;;;-12.20;100.00
32933;BME280;19444;50.518;10.870;2022-12-18T08:28:59;97971.69;;;-12.18;100.00
32933;BME280;19444;50.518;10.870;2022-12-18T08:31:56;97965.47;;;-12.16;100.00
32933;BME280;19444;50.518;10.870;2022-12-18T08:34:53;97968.03;;;-12.16;100.00
32933;BME280;19444;50.518;10.870;2022-12-18T08:37:50;97961.44;;;-11.99;100.00
32933;BME280;19444;50.518;10.870;2022-12-18T08:40:47;97948.50;;;-11.99;100.00
32933;BME280;19444;50.518;10.870;2022-12-18T08:43:45;97944.59;;;-11.93;100.00
32933;BME280;19444;50.518;10.870;2022-12-18T08:47:00;97934.53;;;-11.96;100.00
32933;BME280;19444;50.518;10.870;2022-12-18T08:49:57;97929.50;;;-11.79;100.00
32933;BME280;19444;50.518;10.870;2022-12-18T08:52:54;97920.94;;;-11.79;100.00
32933;BME280;19444;50.518;10.870;2022-12-18T08:55:51;97925.44;;;-11.71;100.00
32933;BME280;19444;50.518;10.870;2022-12-18T08:58:52;97938.34;;;-11.71;100.00
32933;BME280;19444;50.518;10.870;2022-12-18T09:01:50;97952.91;;;-11.70;100.00
32933;BME280;19444;50.518;10.870;2022-12-18T09:04:47;97960.16;;;-11.64;100.00
32933;BME280;19444;50.518;10.870;2022-12-18T09:07:52;97947.78;;;-11.61;100.00
32933;BME280;19444;50.518;10.870;2022-12-18T09:10:50;97950.09;;;-11.67;100.00
32933;BME280;19444;50.518;10.870;2022-12-18T09:13:47;97944.78;;;-11.56;100.00
32933;BME280;19444;50.518;10.870;2022-12-18T09:16:45;97949.69;;;-11.53;100.00
32933;BME280;19444;50.518;10.870;2022-12-18T09:19:42;97943.16;;;-11.57;100.00
32933;BME280;19444;50.518;10.870;2022-12-18T09:22:38;97941.69;;;-11.50;100.00
32933;BME280;19444;50.518;10.870;2022-12-18T09:25:36;97932.13;;;-11.59;100.00
32933;BME280;19444;50.518;10.870;2022-12-18T09:28:33;97928.47;;;-11.47;100.00
32933;BME280;19444;50.518;10.870;2022-12-18T09:31:31;97915.84;;;-11.31;100.00
32933;BME280;19444;50.518;10.870;2022-12-18T09:34:28;97916.50;;;-11.38;100.00
32933;BME280;19444;50.518;10.870;2022-12-18T09:37:25;97901.94;;;-11.30;100.00
32933;BME280;19444;50.518;10.870;2022-12-18T09:40:34;97899.50;;;-11.22;100.00
32933;BME280;19444;50.518;10.870;2022-12-18T09:43:41;97888.72;;;-11.27;100.00
32933;BME280;19444;50.518;10.870;2022-12-18T09:46:50;97895.81;;;-11.09;100.00
32933;BME280;19444;50.518;10.870;2022-12-18T09:49:59;97892.94;;;-11.06;100.00
32933;BME280;19444;50.518;10.870;2022-12-18T09:53:04;97887.19;;;-10.91;100.00
32933;BME280;19444;50.518;10.870;2022-12-18T09:56:04;97885.56;;;-10.82;100.00
32933;BME280;19444;50.518;10.870;2022-12-18T09:59:03;97888.94;;;-10.81;100.00
32933;BME280;19444;50.518;10.870;2022-12-18T10:02:00;97891.69;;;-10.83;100.00
32933;BME280;19444;50.518;10.870;2022-12-18T10:05:17;97893.28;;;-10.72;100.00
32933;BME280;19444;50.518;10.870;2022-12-18T10:15:23;97876.84;;;-10.44;100.00
32933;BME280;19444;50.518;10.870;2022-12-18T10:18:28;97872.44;;;-10.24;100.00
32933;BME280;19444;50.518;10.870;2022-12-18T10:22:01;97869.22;;;-9.90;100.00
32933;BME280;19444;50.518;10.870;2022-12-18T10:25:26;97863.13;;;-9.54;100.00
32933;BME280;19444;50.518;10.870;2022-12-18T10:28:25;97875.34;;;-9.46;100.00
32933;BME280;19444;50.518;10.870;2022-12-18T10:31:24;97866.09;;;-9.31;100.00
32933;BME280;19444;50.518;10.870;2022-12-18T10:34:21;97870.09;;;-9.19;100.00
32933;BME280;19444;50.518;10.870;2022-12-18T10:37:21;97875.59;;;-9.22;100.00
32933;BME280;19444;50.518;10.870;2022-12-18T10:40:19;97887.19;;;-8.90;100.00
32933;BME280;19444;50.518;10.870;2022-12-18T10:43:38;97871.75;;;-8.92;100.00
32933;BME280;19444;50.518;10.870;2022-12-18T10:46:35;97870.34;;;-8.60;100.00
32933;BME280;19444;50.518;10.870;2022-12-18T10:49:33;97869.47;;;-8.69;100.00
32933;BME280;19444;50.518;10.870;2022-12-18T10:52:31;97859.91;;;-8.68;100.00
32933;BME280;19444;50.518;10.870;2022-12-18T10:55:37;97861.28;;;-8.14;100.00
32933;BME280;19444;50.518;10.870;2022-12-18T10:58:38;97855.63;;;-7.59;100.00
32933;BME280;19444;50.518;10.870;2022-12-18T11:01:55;97871.84;;;-7.73;100.00
32933;BME280;19444;50.518;10.870;2022-12-18T11:04:52;97855.56;;;-7.83;100.00
32933;BME280;19444;50.518;10.870;2022-12-18T11:07:50;97843.00;;;-7.88;100.00
32933;BME280;19444;50.518;10.870;2022-12-18T11:10:47;97846.53;;;-7.55;100.00
32933;BME280;19444;50.518;10.870;2022-12-18T11:14:13;97849.00;;;-7.21;100.00
32933;BME280;19444;50.518;10.870;2022-12-18T11:17:30;97868.03;;;-7.28;100.00
32933;BME280;19444;50.518;10.870;2022-12-18T11:20:34;97869.69;;;-7.19;100.00
32933;BME280;19444;50.518;10.870;2022-12-18T11:23:33;97863.50;;;-7.10;100.00
32933;BME280;19444;50.518;10.870;2022-12-18T11:26:34;97866.28;;;-7.03;100.00
32933;BME280;19444;50.518;10.870;2022-12-18T11:29:38;97860.22;;;-7.28;100.00
32933;BME280;19444;50.518;10.870;2022-12-18T11:32:53;97851.09;;;-7.24;100.00
32933;BME280;19444;50.518;10.870;2022-12-18T11:35:55;97849.31;;;-6.99;100.00
32933;BME280;19444;50.518;10.870;2022-12-18T11:38:55;97851.28;;;-6.85;100.00
32933;BME280;19444;50.518;10.870;2022-12-18T11:45:35;97840.34;;;-6.97;100.00
32933;BME280;19444;50.518;10.870;2022-12-18T11:49:21;97830.75;;;-6.96;100.00
32933;BME280;19444;50.518;10.870;2022-12-18T11:52:37;97831.25;;;-6.76;100.00
32933;BME280;19444;50.518;10.870;2022-12-18T11:56:25;97816.53;;;-6.61;100.00
32933;BME280;19444;50.518;10.870;2022-12-18T12:03:20;97788.00;;;-6.15;100.00
32933;BME280;19444;50.518;10.870;2022-12-18T12:06:59;97776.38;;;-6.05;100.00
32933;BME280;19444;50.518;10.870;2022-12-18T12:10:20;97766.88;;;-5.97;100.00
32933;BME280;19444;50.518;10.870;2022-12-18T12:13:39;97764.31;;;-5.83;100.00
32933;BME280;19444;50.518;10.870;2022-12-18T12:17:04;97760.84;;;-5.29;100.00
32933;BME280;19444;50.518;10.870;2022-12-18T12:20:36;97742.69;;;-5.31;100.00
32933;BME280;19444;50.518;10.870;2022-12-18T12:28:05;97774.88;;;-5.30;100.00
32933;BME280;19444;50.518;10.870;2022-12-18T12:34:25;97782.25;;;-4.96;100.00
32933;BME280;19444;50.518;10.870;2022-12-18T12:37:40;97788.25;;;-4.73;100.00
32933;BME280;19444;50.518;10.870;2022-12-18T12:40:54;97799.72;;;-4.74;100.00
32933;BME280;19444;50.518;10.870;2022-12-18T12:44:07;97789.44;;;-4.75;100.00
32933;BME280;19444;50.518;10.870;2022-12-18T12:47:16;97779.31;;;-4.78;100.00
32933;BME280;19444;50.518;10.870;2022-12-18T12:50:20;97775.81;;;-4.71;100.00
32933;BME280;19444;50.518;10.870;2022-12-18T12:53:26;97780.31;;;-4.79;100.00
32933;BME280;19444;50.518;10.870;2022-12-18T12:56:39;97768.16;;;-4.72;100.00
32933;BME280;19444;50.518;10.870;2022-12-18T13:07:08;97742.75;;;-4.13;100.00
32933;BME280;19444;50.518;10.870;2022-12-18T13:13:21;97726.81;;;-4.33;100.00
32933;BME280;19444;50.518;10.870;2022-12-18T13:16:24;97741.16;;;-4.43;100.00
32933;BME280;19444;50.518;10.870;2022-12-18T13:19:24;97740.44;;;-4.52;100.00
32933;BME280;19444;50.518;10.870;2022-12-18T13:22:28;97739.28;;;-4.64;100.00
32933;BME280;19444;50.518;10.870;2022-12-18T13:25:37;97738.13;;;-4.62;100.00
32933;BME280;19444;50.518;10.870;2022-12-18T13:34:47;97722.59;;;-4.63;100.00
32933;BME280;19444;50.518;10.870;2022-12-18T13:37:52;97721.00;;;-4.64;100.00
32933;BME280;19444;50.518;10.870;2022-12-18T13:43:51;97734.13;;;-4.58;100.00
32933;BME280;19444;50.518;10.870;2022-12-18T13:46:50;97719.75;;;-4.32;100.00
32933;BME280;19444;50.518;10.870;2022-12-18T13:49:48;97725.19;;;-4.48;100.00
32933;BME280;19444;50.518;10.870;2022-12-18T13:52:45;97718.63;;;-4.30;100.00
32933;BME280;19444;50.518;10.870;2022-12-18T13:55:45;97734.84;;;-4.34;100.00
32933;BME280;19444;50.518;10.870;2022-12-18T13:58:42;97728.63;;;-4.33;100.00
32933;BME280;19444;50.518;10.870;2022-12-18T14:04:50;97748.91;;;-5.32;100.00
32933;BME280;19444;50.518;10.870;2022-12-18T14:07:48;97748.22;;;-5.49;100.00
32933;BME280;19444;50.518;10.870;2022-12-18T14:10:48;97729.88;;;-5.40;100.00
32933;BME280;19444;50.518;10.870;2022-12-18T14:13:48;97743.41;;;-4.99;100.00
32933;BME280;19444;50.518;10.870;2022-12-18T14:16:47;97728.66;;;-4.48;100.00
32933;BME280;19444;50.518;10.870;2022-12-18T14:19:49;97713.31;;;-4.66;100.00
32933;BME280;19444;50.518;10.870;2022-12-18T14:22:48;97726.06;;;-5.15;100.00
32933;BME280;19444;50.518;10.870;2022-12-18T14:25:46;97726.69;;;-4.75;100.00
32933;BME280;19444;50.518;10.870;2022-12-18T14:28:44;97733.69;;;-4.61;100.00
32933;BME280;19444;50.518;10.870;2022-12-18T14:31:41;97729.13;;;-4.08;100.00
32933;BME280;19444;50.518;10.870;2022-12-18T14:34:38;97726.84;;;-4.47;100.00
32933;BME280;19444;50.518;10.870;2022-12-18T14:37:34;97739.09;;;-4.33;100.00
32933;BME280;19444;50.518;10.870;2022-12-18T14:40:31;97745.69;;;-4.52;100.00
32933;BME280;19444;50.518;10.870;2022-12-18T14:43:36;97756.44;;;-4.47;100.00
32933;BME280;19444;50.518;10.870;2022-12-18T14:46:39;97771.41;;;-4.55;100.00
32933;BME280;19444;50.518;10.870;2022-12-18T14:49:36;97763.09;;;-4.59;100.00
32933;BME280;19444;50.518;10.870;2022-12-18T14:52:34;97770.94;;;-4.44;100.00
32933;BME280;19444;50.518;10.870;2022-12-18T14:55:32;97785.47;;;-4.27;100.00
32933;BME280;19444;50.518;10.870;2022-12-18T14:58:29;97776.19;;;-4.44;100.00
32933;BME280;19444;50.518;10.870;2022-12-18T15:01:37;97756.22;;;-4.31;100.00
32933;BME280;19444;50.518;10.870;2022-12-18T15:04:37;97753.78;;;-4.76;100.00
32933;BME280;19444;50.518;10.870;2022-12-18T15:07:49;97732.78;;;-4.68;100.00
32933;BME280;19444;50.518;10.870;2022-12-18T15:10:47;97744.75;;;-5.03;100.00
32933;BME280;19444;50.518;10.870;2022-12-18T15:13:44;97746.06;;;-5.22;100.00
32933;BME280;19444;50.518;10.870;2022-12-18T15:16:41;97732.59;;;-4.67;100.00
32933;BME280;19444;50.518;10.870;2022-12-18T15:19:42;97732.88;;;-4.91;100.00
32933;BME280;19444;50.518;10.870;2022-12-18T15:22:40;97729.16;;;-4.97;100.00
32933;BME280;19444;50.518;10.870;2022-12-18T15:25:38;97723.59;;;-4.79;100.00
32933;BME280;19444;50.518;10.870;2022-12-18T15:28:50;97739.72;;;-4.90;100.00
32933;BME280;19444;50.518;10.870;2022-12-18T15:32:05;97742.53;;;-4.92;100.00
32933;BME280;19444;50.518;10.870;2022-12-18T15:35:15;97738.19;;;-4.99;100.00
32933;BME280;19444;50.518;10.870;2022-12-18T15:38:12;97731.63;;;-4.80;100.00
32933;BME280;19444;50.518;10.870;2022-12-18T15:41:14;97751.84;;;-4.74;100.00
32933;BME280;19444;50.518;10.870;2022-12-18T15:44:23;97760.00;;;-4.92;100.00
32933;BME280;19444;50.518;10.870;2022-12-18T15:47:21;97756.41;;;-4.91;100.00
32933;BME280;19444;50.518;10.870;2022-12-18T15:50:18;97753.44;;;-4.88;100.00
32933;BME280;19444;50.518;10.870;2022-12-18T15:53:15;97740.88;;;-5.07;100.00
32933;BME280;19444;50.518;10.870;2022-12-18T15:56:13;97739.50;;;-5.03;100.00
32933;BME280;19444;50.518;10.870;2022-12-18T15:59:29;97742.50;;;-5.06;100.00
32933;BME280;19444;50.518;10.870;2022-12-18T16:02:26;97738.56;;;-5.02;100.00
32933;BME280;19444;50.518;10.870;2022-12-18T16:05:26;97742.44;;;-5.36;100.00
32933;BME280;19444;50.518;10.870;2022-12-18T16:08:23;97729.63;;;-5.31;100.00
32933;BME280;19444;50.518;10.870;2022-12-18T16:11:24;97727.03;;;-4.93;100.00
32933;BME280;19444;50.518;10.870;2022-12-18T16:14:34;97724.19;;;-5.06;100.00
32933;BME280;19444;50.518;10.870;2022-12-18T16:17:31;97709.09;;;-4.81;100.00
32933;BME280;19444;50.518;10.870;2022-12-18T16:20:28;97732.41;;;-5.09;100.00
32933;BME280;19444;50.518;10.870;2022-12-18T16:23:25;97729.78;;;-4.95;100.00
32933;BME280;19444;50.518;10.870;2022-12-18T16:26:23;97737.81;;;-4.96;100.00
32933;BME280;19444;50.518;10.870;2022-12-18T16:29:24;97724.56;;;-5.09;100.00
32933;BME280;19444;50.518;10.870;2022-12-18T16:32:23;97735.66;;;-5.07;100.00
32933;BME280;19444;50.518;10.870;2022-12-18T16:35:21;97733.66;;;-5.05;100.00
32933;BME280;19444;50.518;10.870;2022-12-18T16:38:17;97719.44;;;-5.03;100.00